^^
No Wait Weather (KNEBELLE1) Station Historical Data
Daily Summary for May 16, 2019 Units:  English    Metric   Both
Daily Weekly Monthly Yearly Custom
  High: Low: Average:
Temperature: 94.9 °F 65.6 °F 80.2 °F
Dew Point: 64.1 °F 52.67 °F 59.2 °F
Humidity: 89% 26% 54%
Wind Speed: 9mph 0mph 0.8mph
Wind Gust: 12mph - -
Wind- - SW
Pressure: 29.63 in 29.41 in -
Precipitation: 0 in    
Historical Graphs
 
 
Tabular Data for May 16, 2019
Time Temperature Dew Point Pressure Wind Wind Speed Wind Gust Humidity Rainfall Rate (Hourly) solar
00:04 69.4 °F 61.5 °F 29.63 in Calm     76% 0 in WeatherCatV3.04B91 W/m2
00:09 69.4 °F 61.5 °F 29.63 in Calm     76% 0 in WeatherCatV3.04B91 W/m2
00:14 69.6 °F 61.69 °F 29.62 in Calm     76% 0 in WeatherCatV3.04B91 W/m2
00:19 69.6 °F 61.69 °F 29.62 in Calm   1 mph 76% 0 in WeatherCatV3.04B91 W/m2
00:24 69.8 °F 61.88 °F 29.62 in Calm   1 mph 76% 0 in WeatherCatV3.04B91 W/m2
00:29 69.9 °F 61.98 °F 29.62 in Calm   2 mph 76% 0 in WeatherCatV3.04B91 W/m2
00:34 69.9 °F 61.98 °F 29.62 in Calm     76% 0 in WeatherCatV3.04B91 W/m2
00:39 69.9 °F 61.98 °F 29.62 in Calm     76% 0 in WeatherCatV3.04B91 W/m2
00:44 70.3 °F 62.36 °F 29.62 in Calm     76% 0 in WeatherCatV3.04B91 W/m2
00:49 70.4 °F 62.46 °F 29.62 in Calm     76% 0 in WeatherCatV3.04B91 W/m2
00:54 70.6 °F 62.28 °F 29.62 in Calm   3 mph 75% 0 in WeatherCatV3.04B91 W/m2
00:59 70.8 °F 62.47 °F 29.61 in Calm   2 mph 75% 0 in WeatherCatV3.04B91 W/m2
01:04 70.8 °F 62.47 °F 29.61 in Calm     75% 0 in WeatherCatV3.04B91 W/m2
01:09 70.9 °F 62.57 °F 29.61 in WSW 1 mph 1 mph 75% 0 in WeatherCatV3.04B91 W/m2
01:14 70.9 °F 62.57 °F 29.60 in Calm     75% 0 in WeatherCatV3.04B91 W/m2
01:19 70.8 °F 62.47 °F 29.60 in Calm     75% 0 in WeatherCatV3.04B91 W/m2
01:24 70.8 °F 62.47 °F 29.60 in Calm     75% 0 in WeatherCatV3.04B91 W/m2
01:29 70.8 °F 62.85 °F 29.60 in Calm     76% 0 in WeatherCatV3.04B91 W/m2
01:34 70.8 °F 62.85 °F 29.60 in Calm     76% 0 in WeatherCatV3.04B91 W/m2
01:39 70.8 °F 62.85 °F 29.60 in Calm     76% 0 in WeatherCatV3.04B91 W/m2
01:44 70.6 °F 62.65 °F 29.60 in Calm     76% 0 in WeatherCatV3.04B91 W/m2
01:49 70.6 °F 63.03 °F 29.60 in Calm     77% 0 in WeatherCatV3.04B91 W/m2
01:54 70.4 °F 62.83 °F 29.60 in Calm     77% 0 in WeatherCatV3.04B91 W/m2
01:59 70.4 °F 63.2 °F 29.59 in Calm     78% 0 in WeatherCatV3.04B91 W/m2
02:04 70.3 °F 63.1 °F 29.59 in Calm   2 mph 78% 0 in WeatherCatV3.04B91 W/m2
02:09 70.3 °F 63.1 °F 29.59 in Calm     78% 0 in WeatherCatV3.04B91 W/m2
02:14 70.3 °F 63.47 °F 29.58 in Calm     79% 0 in WeatherCatV3.04B91 W/m2
02:19 70.3 °F 63.47 °F 29.58 in Calm   3 mph 79% 0 in WeatherCatV3.04B91 W/m2
02:24 70.3 °F 63.47 °F 29.58 in Calm   3 mph 79% 0 in WeatherCatV3.04B91 W/m2
02:29 70.1 °F 63.63 °F 29.57 in Calm     80% 0 in WeatherCatV3.04B91 W/m2
02:34 69.9 °F 63.44 °F 29.57 in Calm   2 mph 80% 0 in WeatherCatV3.04B91 W/m2
02:39 69.9 °F 63.44 °F 29.57 in Calm     80% 0 in WeatherCatV3.04B91 W/m2
02:44 69.8 °F 63.7 °F 29.56 in Calm   1 mph 81% 0 in WeatherCatV3.04B91 W/m2
02:49 69.6 °F 63.5 °F 29.56 in Calm     81% 0 in WeatherCatV3.04B91 W/m2
02:54 69.6 °F 63.5 °F 29.56 in Calm     81% 0 in WeatherCatV3.04B91 W/m2
02:59 69.6 °F 63.85 °F 29.56 in Calm   1 mph 82% 0 in WeatherCatV3.04B91 W/m2
03:04 69.4 °F 63.66 °F 29.56 in Calm     82% 0 in WeatherCatV3.04B91 W/m2
03:09 69.4 °F 63.66 °F 29.56 in Calm     82% 0 in WeatherCatV3.04B91 W/m2
03:14 69.4 °F 63.66 °F 29.56 in Calm     82% 0 in WeatherCatV3.04B91 W/m2
03:19 69.4 °F 63.66 °F 29.56 in Calm     82% 0 in WeatherCatV3.04B91 W/m2
03:24 69.3 °F 63.91 °F 29.56 in Calm     83% 0 in WeatherCatV3.04B91 W/m2
03:28 69.1 °F 63.71 °F 29.56 in Calm     83% 0 in WeatherCatV3.04B91 W/m2
03:34 69.1 °F 63.71 °F 29.55 in Calm     83% 0 in WeatherCatV3.04B91 W/m2
03:39 68.9 °F 63.51 °F 29.55 in Calm     83% 0 in WeatherCatV3.04B91 W/m2
03:44 68.9 °F 63.86 °F 29.55 in Calm     84% 0 in WeatherCatV3.04B91 W/m2
03:49 68.9 °F 63.86 °F 29.55 in Calm     84% 0 in WeatherCatV3.04B91 W/m2
03:54 68.9 °F 63.86 °F 29.55 in Calm     84% 0 in WeatherCatV3.04B91 W/m2
03:59 68.8 °F 63.76 °F 29.54 in Calm     84% 0 in WeatherCatV3.04B91 W/m2
04:04 68.8 °F 63.76 °F 29.54 in Calm     84% 0 in WeatherCatV3.04B91 W/m2
04:09 68.8 °F 64.1 °F 29.54 in SW 1 mph 4 mph 85% 0 in WeatherCatV3.04B91 W/m2
04:14 68.8 °F 63.76 °F 29.54 in Calm     84% 0 in WeatherCatV3.04B91 W/m2
04:19 68.8 °F 63.76 °F 29.54 in Calm     84% 0 in WeatherCatV3.04B91 W/m2
04:24 68.6 °F 63.56 °F 29.54 in Calm   2 mph 84% 0 in WeatherCatV3.04B91 W/m2
04:29 68.6 °F 63.56 °F 29.54 in Calm     84% 0 in WeatherCatV3.04B91 W/m2
04:34 68.4 °F 63.37 °F 29.54 in Calm     84% 0 in WeatherCatV3.04B91 W/m2
04:39 68.3 °F 63.61 °F 29.54 in Calm     85% 0 in WeatherCatV3.04B91 W/m2
04:44 67.9 °F 63.22 °F 29.54 in Calm     85% 0 in WeatherCatV3.04B91 W/m2
04:49 67.9 °F 63.22 °F 29.54 in Calm     85% 0 in WeatherCatV3.04B91 W/m2
04:54 67.8 °F 63.12 °F 29.54 in Calm     85% 0 in WeatherCatV3.04B91 W/m2
04:59 67.4 °F 62.73 °F 29.53 in Calm     85% 0 in WeatherCatV3.04B91 W/m2
05:04 67.3 °F 62.96 °F 29.53 in Calm     86% 0 in WeatherCatV3.04B91 W/m2
05:09 67.1 °F 62.76 °F 29.53 in Calm     86% 0 in WeatherCatV3.04B91 W/m2
05:14 66.8 °F 62.47 °F 29.52 in Calm     86% 0 in WeatherCatV3.04B91 W/m2
05:19 66.6 °F 62.6 °F 29.52 in Calm     87% 0 in WeatherCatV3.04B91 W/m2
05:24 66.4 °F 62.41 °F 29.52 in Calm     87% 0 in WeatherCatV3.04B91 W/m2
05:29 66.3 °F 62.31 °F 29.52 in Calm     87% 0 in WeatherCatV3.04B91 W/m2
05:34 66.3 °F 62.31 °F 29.52 in Calm     87% 0 in WeatherCatV3.04B91 W/m2
05:39 66.1 °F 62.44 °F 29.52 in Calm     88% 0 in WeatherCatV3.04B91 W/m2
05:44 66 °F 62.34 °F 29.52 in Calm     88% 0 in WeatherCatV3.04B91 W/m2
05:49 66 °F 62.34 °F 29.52 in Calm     88% 0 in WeatherCatV3.04B91 W/m2
05:54 65.8 °F 62.14 °F 29.52 in Calm     88% 0 in WeatherCatV3.04B91 W/m2
05:59 65.8 °F 62.14 °F 29.52 in Calm     88% 0 in WeatherCatV3.04B91 W/m2
06:04 65.6 °F 62.26 °F 29.52 in Calm     89% 0 in WeatherCatV3.04B91 W/m2
06:09 65.6 °F 62.26 °F 29.52 in Calm   2 mph 89% 0 in WeatherCatV3.04B91 W/m2
06:14 65.6 °F 62.26 °F 29.52 in Calm     89% 0 in WeatherCatV3.04B91 W/m2
06:19 65.8 °F 62.14 °F 29.52 in SW 1 mph 1 mph 88% 0 in WeatherCatV3.04B91 W/m2
06:24 66 °F 62.34 °F 29.52 in Calm   1 mph 88% 0 in WeatherCatV3.04B91 W/m2
06:29 66 °F 62.34 °F 29.52 in Calm     88% 0 in WeatherCatV3.04B91 W/m2
06:34 66.1 °F 62.11 °F 29.52 in Calm     87% 0 in WeatherCatV3.04B91 W/m2
06:39 66.3 °F 62.31 °F 29.52 in Calm     87% 0 in WeatherCatV3.04B91 W/m2
06:44 66.3 °F 62.31 °F 29.53 in Calm     87% 0 in WeatherCatV3.04B91 W/m2
06:49 66.4 °F 62.08 °F 29.53 in Calm     86% 0 in WeatherCatV3.04B91 W/m2
06:54 66.8 °F 62.47 °F 29.53 in Calm     86% 0 in WeatherCatV3.04B91 W/m2
06:59 66.9 °F 62.24 °F 29.54 in Calm     85% 0 in WeatherCatV3.04B91 W/m2
07:04 67.1 °F 62.43 °F 29.54 in Calm     85% 0 in WeatherCatV3.04B91 W/m2
07:09 67.4 °F 62.39 °F 29.54 in Calm     84% 0 in WeatherCatV3.04B91 W/m2
07:14 67.9 °F 62.88 °F 29.54 in Calm     84% 0 in WeatherCatV3.04B91 W/m2
07:19 68.3 °F 62.93 °F 29.54 in Calm     83% 0 in WeatherCatV3.04B91 W/m2
07:24 68.9 °F 63.51 °F 29.54 in Calm     83% 0 in WeatherCatV3.04B91 W/m2
07:29 69.8 °F 63.7 °F 29.54 in Calm     81% 0 in WeatherCatV3.04B91 W/m2
07:34 70.6 °F 63.76 °F 29.54 in Calm     79% 0 in WeatherCatV3.04B91 W/m2
07:39 70.9 °F 63.32 °F 29.54 in Calm   1 mph 77% 0 in WeatherCatV3.04B91 W/m2
07:44 70.9 °F 62.57 °F 29.54 in Calm   3 mph 75% 0 in WeatherCatV3.04B91 W/m2
07:49 71.3 °F 62.18 °F 29.54 in Calm   1 mph 73% 0 in WeatherCatV3.04B91 W/m2
07:54 71.6 °F 61.68 °F 29.54 in Calm   2 mph 71% 0 in WeatherCatV3.04B91 W/m2
07:59 71.8 °F 61.07 °F 29.54 in Calm   1 mph 69% 0 in WeatherCatV3.04B91 W/m2
08:04 72.5 °F 61.32 °F 29.54 in Calm     68% 0 in WeatherCatV3.04B91 W/m2
08:09 72.8 °F 60.76 °F 29.54 in SW 2 mph 2 mph 66% 0 in WeatherCatV3.04B91 W/m2
08:14 73 °F 60.52 °F 29.54 in Calm     65% 0 in WeatherCatV3.04B91 W/m2
08:19 73.5 °F 61 °F 29.54 in Calm     65% 0 in WeatherCatV3.04B91 W/m2
08:24 73.7 °F 60.75 °F 29.54 in Calm     64% 0 in WeatherCatV3.04B91 W/m2
08:29 74 °F 60.59 °F 29.55 in Calm     63% 0 in WeatherCatV3.04B91 W/m2
08:34 74.2 °F 60.33 °F 29.55 in Calm     62% 0 in WeatherCatV3.04B91 W/m2
08:39 74.6 °F 60.7 °F 29.55 in Calm     62% 0 in WeatherCatV3.04B91 W/m2
08:44 75.3 °F 61.36 °F 29.55 in Calm     62% 0 in WeatherCatV3.04B91 W/m2
08:49 75.8 °F 62.73 °F 29.55 in Calm     64% 0 in WeatherCatV3.04B91 W/m2
08:54 76.1 °F 62.57 °F 29.55 in Calm   1 mph 63% 0 in WeatherCatV3.04B91 W/m2
08:59 76.3 °F 61.84 °F 29.55 in Calm     61% 0 in WeatherCatV3.04B91 W/m2
09:04 76.1 °F 60.71 °F 29.55 in Calm     59% 0 in WeatherCatV3.04B91 W/m2
09:09 76.3 °F 61.37 °F 29.55 in Calm     60% 0 in WeatherCatV3.04B91 W/m2
09:14 76.1 °F 60.23 °F 29.55 in Calm     58% 0 in WeatherCatV3.04B91 W/m2
09:19 76.1 °F 60.23 °F 29.55 in Calm   1 mph 58% 0 in WeatherCatV3.04B91 W/m2
09:24 76.1 °F 59.74 °F 29.55 in Calm   1 mph 57% 0 in WeatherCatV3.04B91 W/m2
09:29 76.5 °F 60.11 °F 29.55 in Calm     57% 0 in WeatherCatV3.04B91 W/m2
09:34 76.7 °F 59.3 °F 29.55 in Calm     55% 0 in WeatherCatV3.04B91 W/m2
09:39 76.8 °F 59.39 °F 29.55 in Calm     55% 0 in WeatherCatV3.04B91 W/m2
09:44 77 °F 58.54 °F 29.55 in Calm     53% 0 in WeatherCatV3.04B91 W/m2
09:49 77.2 °F 59.24 °F 29.55 in Calm     54% 0 in WeatherCatV3.04B91 W/m2
09:54 77.4 °F 58.91 °F 29.55 in Calm     53% 0 in WeatherCatV3.04B91 W/m2
09:59 77.4 °F 58.37 °F 29.55 in Calm     52% 0 in WeatherCatV3.04B91 W/m2
10:04 77.7 °F 59.18 °F 29.55 in Calm     53% 0 in WeatherCatV3.04B91 W/m2
10:09 77.9 °F 59.37 °F 29.55 in Calm     53% 0 in WeatherCatV3.04B91 W/m2
10:14 78.3 °F 58.11 °F 29.55 in Calm     50% 0 in WeatherCatV3.04B91 W/m2
10:19 78.6 °F 58.38 °F 29.55 in Calm     50% 0 in WeatherCatV3.04B91 W/m2
10:24 79 °F 58.18 °F 29.55 in Calm   1 mph 49% 0 in WeatherCatV3.04B91 W/m2
10:29 79.4 °F 59.11 °F 29.55 in Calm     50% 0 in WeatherCatV3.04B91 W/m2
10:34 79.6 °F 59.3 °F 29.55 in Calm     50% 0 in WeatherCatV3.04B91 W/m2
10:39 79.8 °F 59.48 °F 29.55 in Calm   4 mph 50% 0 in WeatherCatV3.04B91 W/m2
10:44 79.8 °F 59.48 °F 29.55 in Calm     50% 0 in WeatherCatV3.04B91 W/m2
10:49 79.9 °F 59.01 °F 29.55 in Calm     49% 0 in WeatherCatV3.04B91 W/m2
10:54 80.1 °F 58.02 °F 29.55 in SSW 4 mph 5 mph 47% 0 in WeatherCatV3.04B91 W/m2
10:59 80.3 °F 58.21 °F 29.55 in Calm   4 mph 47% 0 in WeatherCatV3.04B91 W/m2
11:04 80.7 °F 59.74 °F 29.55 in Calm   3 mph 49% 0 in WeatherCatV3.04B91 W/m2
11:09 80.9 °F 57.54 °F 29.55 in SSW 4 mph 6 mph 45% 0 in WeatherCatV3.04B91 W/m2
11:14 81.2 °F 57.81 °F 29.54 in SSW 7 mph 7 mph 45% 0 in WeatherCatV3.04B91 W/m2
11:19 81.4 °F 57.36 °F 29.54 in Calm   1 mph 44% 0 in WeatherCatV3.04B91 W/m2
11:24 82 °F 58.53 °F 29.54 in SW 1 mph 10 mph 45% 0 in WeatherCatV3.04B91 W/m2
11:29 82.4 °F 56.3 °F 29.55 in SW 2 mph 6 mph 41% 0 in WeatherCatV3.04B91 W/m2
11:34 82.8 °F 57.99 °F 29.55 in Calm   4 mph 43% 0 in WeatherCatV3.04B91 W/m2
11:39 83.2 °F 58.35 °F 29.55 in Calm   3 mph 43% 0 in WeatherCatV3.04B91 W/m2
11:44 83.6 °F 58.05 °F 29.54 in Calm   2 mph 42% 0 in WeatherCatV3.04B91 W/m2
11:49 84 °F 57.05 °F 29.54 in Calm   4 mph 40% 0 in WeatherCatV3.04B91 W/m2
11:54 84.1 °F 56.43 °F 29.54 in WSW 3 mph 6 mph 39% 0 in WeatherCatV3.04B91 W/m2
11:59 84.5 °F 56.07 °F 29.53 in SSW 1 mph 6 mph 38% 0 in WeatherCatV3.04B91 W/m2
12:04 84.9 °F 56.42 °F 29.53 in Calm   2 mph 38% 0 in WeatherCatV3.04B91 W/m2
12:09 85.1 °F 55.86 °F 29.53 in Calm     37% 0 in WeatherCatV3.04B91 W/m2
12:14 85.3 °F 56.78 °F 29.53 in Calm   3 mph 38% 0 in WeatherCatV3.04B91 W/m2
12:19 85.5 °F 56.96 °F 29.53 in SW 1 mph 5 mph 38% 0 in WeatherCatV3.04B91 W/m2
12:24 85.9 °F 58.03 °F 29.53 in SW 4 mph 4 mph 39% 0 in WeatherCatV3.04B91 W/m2
12:29 86.1 °F 56.75 °F 29.52 in Calm   5 mph 37% 0 in WeatherCatV3.04B91 W/m2
12:34 86.3 °F 57.66 °F 29.52 in Calm   3 mph 38% 0 in WeatherCatV3.04B91 W/m2
12:39 86.5 °F 57.84 °F 29.52 in Calm   2 mph 38% 0 in WeatherCatV3.04B91 W/m2
12:44 86.7 °F 58.02 °F 29.51 in Calm     38% 0 in WeatherCatV3.04B91 W/m2
12:49 87.2 °F 57.72 °F 29.51 in Calm   3 mph 37% 0 in WeatherCatV3.04B91 W/m2
12:54 87.6 °F 56.52 °F 29.51 in WSW 4 mph 5 mph 35% 0 in WeatherCatV3.04B91 W/m2
12:59 88 °F 56.87 °F 29.51 in Calm     35% 0 in WeatherCatV3.04B91 W/m2
13:04 88.4 °F 58.01 °F 29.51 in Calm   2 mph 36% 0 in WeatherCatV3.04B91 W/m2
13:09 88.6 °F 56.6 °F 29.51 in WSW 1 mph 1 mph 34% 0 in WeatherCatV3.04B91 W/m2
13:14 89 °F 55.27 °F 29.51 in Calm     32% 0 in WeatherCatV3.04B91 W/m2
13:19 89.5 °F 55.7 °F 29.51 in Calm     32% 0 in WeatherCatV3.04B91 W/m2
13:24 89.9 °F 56.9 °F 29.51 in Calm     33% 0 in WeatherCatV3.04B91 W/m2
13:29 89.9 °F 55.17 °F 29.51 in Calm   3 mph 31% 0 in WeatherCatV3.04B91 W/m2
13:34 89.9 °F 54.27 °F 29.51 in Calm     30% 0 in WeatherCatV3.04B91 W/m2
13:39 90.3 °F 52.73 °F 29.51 in Calm   3 mph 28% 0 in WeatherCatV3.04B91 W/m2
13:44 90.5 °F 52.9 °F 29.50 in Calm     28% 0 in WeatherCatV3.04B91 W/m2
13:49 90.7 °F 54.96 °F 29.50 in Calm     30% 0 in WeatherCatV3.04B91 W/m2
13:54 91.4 °F 52.67 °F 29.50 in Calm   3 mph 27% 0 in WeatherCatV3.04B91 W/m2
13:59 91.8 °F 57.69 °F 29.49 in SW 2 mph 3 mph 32% 0 in WeatherCatV3.04B91 W/m2
14:04 92.5 °F 55.57 °F 29.49 in Calm     29% 0 in WeatherCatV3.04B91 W/m2
14:09 92.5 °F 53.6 °F 29.49 in Calm     27% 0 in WeatherCatV3.04B91 W/m2
14:14 92.5 °F 56.5 °F 29.48 in Calm     30% 0 in WeatherCatV3.04B91 W/m2
14:19 92.1 °F 56.16 °F 29.48 in SW 1 mph 2 mph 30% 0 in WeatherCatV3.04B91 W/m2
14:24 91.6 °F 56.64 °F 29.48 in SW 1 mph 4 mph 31% 0 in WeatherCatV3.04B91 W/m2
14:29 91.4 °F 58.2 °F 29.48 in Calm     33% 0 in WeatherCatV3.04B91 W/m2
14:34 91.4 °F 59.85 °F 29.48 in Calm     35% 0 in WeatherCatV3.04B91 W/m2
14:39 91.6 °F 58.38 °F 29.48 in Calm     33% 0 in WeatherCatV3.04B91 W/m2
14:44 91.6 °F 59.21 °F 29.48 in Calm     34% 0 in WeatherCatV3.04B91 W/m2
14:49 92.1 °F 60.46 °F 29.48 in Calm     35% 0 in WeatherCatV3.04B91 W/m2
14:54 92.1 °F 57.95 °F 29.48 in Calm     32% 0 in WeatherCatV3.04B91 W/m2
14:59 92.3 °F 59.82 °F 29.47 in Calm     34% 0 in WeatherCatV3.04B91 W/m2
15:04 92.9 °F 57.76 °F 29.47 in SW 3 mph 3 mph 31% 0 in WeatherCatV3.04B91 W/m2
15:09 93.4 °F 56.33 °F 29.47 in Calm   1 mph 29% 0 in WeatherCatV3.04B91 W/m2
15:14 93.8 °F 54.7 °F 29.47 in SW 1 mph 5 mph 27% 0 in WeatherCatV3.04B91 W/m2
15:19 94 °F 55.88 °F 29.47 in Calm   4 mph 28% 0 in WeatherCatV3.04B91 W/m2
15:24 94 °F 55.88 °F 29.47 in Calm   1 mph 28% 0 in WeatherCatV3.04B91 W/m2
15:29 94.5 °F 58.22 °F 29.46 in SW 2 mph 3 mph 30% 0 in WeatherCatV3.04B91 W/m2
15:34 94.5 °F 56.3 °F 29.46 in Calm   6 mph 28% 0 in WeatherCatV3.04B91 W/m2
15:39 94.7 °F 55.47 °F 29.46 in SSW 4 mph 6 mph 27% 0 in WeatherCatV3.04B91 W/m2
15:44 94.5 °F 55.3 °F 29.45 in SSW 1 mph 6 mph 27% 0 in WeatherCatV3.04B91 W/m2
15:49 94.7 °F 56.47 °F 29.45 in SW 1 mph 6 mph 28% 0 in WeatherCatV3.04B91 W/m2
15:54 94.7 °F 55.47 °F 29.45 in SW 4 mph 4 mph 27% 0 in WeatherCatV3.04B91 W/m2
15:59 94.9 °F 55.63 °F 29.45 in SW 3 mph 3 mph 27% 0 in WeatherCatV3.04B91 W/m2
16:04 94.9 °F 55.63 °F 29.45 in SW 2 mph 6 mph 27% 0 in WeatherCatV3.04B91 W/m2
16:09 94.7 °F 54.43 °F 29.45 in Calm   7 mph 26% 0 in WeatherCatV3.04B91 W/m2
16:14 94.7 °F 54.43 °F 29.44 in SW 4 mph 6 mph 26% 0 in WeatherCatV3.04B91 W/m2
16:19 94.9 °F 54.6 °F 29.44 in WSW 3 mph 6 mph 26% 0 in WeatherCatV3.04B91 W/m2
16:24 94.7 °F 54.43 °F 29.44 in SW 4 mph 6 mph 26% 0 in WeatherCatV3.04B91 W/m2
16:29 94.7 °F 54.43 °F 29.43 in Calm   6 mph 26% 0 in WeatherCatV3.04B91 W/m2
16:34 94.9 °F 56.64 °F 29.43 in SW 7 mph 7 mph 28% 0 in WeatherCatV3.04B91 W/m2
16:39 94.7 °F 56.47 °F 29.43 in Calm   3 mph 28% 0 in WeatherCatV3.04B91 W/m2
16:44 94.5 °F 55.3 °F 29.43 in Calm   7 mph 27% 0 in WeatherCatV3.04B91 W/m2
16:49 94.3 °F 54.09 °F 29.43 in WSW 4 mph 8 mph 26% 0 in WeatherCatV3.04B91 W/m2
16:54 94 °F 55.88 °F 29.43 in Calm   1 mph 28% 0 in WeatherCatV3.04B91 W/m2
16:59 93.8 °F 54.7 °F 29.43 in SSW 4 mph 4 mph 27% 0 in WeatherCatV3.04B91 W/m2
17:04 93.6 °F 54.53 °F 29.43 in SSW 2 mph 5 mph 27% 0 in WeatherCatV3.04B91 W/m2
17:09 93.6 °F 53.5 °F 29.43 in SSW 2 mph 10 mph 26% 0 in WeatherCatV3.04B91 W/m2
17:14 93.6 °F 54.53 °F 29.43 in SSW 3 mph 8 mph 27% 0 in WeatherCatV3.04B91 W/m2
17:19 93.6 °F 54.53 °F 29.43 in SW 7 mph 9 mph 27% 0 in WeatherCatV3.04B91 W/m2
17:24 93.4 °F 54.37 °F 29.43 in WSW 4 mph 12 mph 27% 0 in WeatherCatV3.04B91 W/m2
17:29 93.4 °F 53.33 °F 29.43 in SW 1 mph 9 mph 26% 0 in WeatherCatV3.04B91 W/m2
17:34 93.4 °F 54.37 °F 29.43 in SW 4 mph 7 mph 27% 0 in WeatherCatV3.04B91 W/m2
17:39 93.2 °F 55.19 °F 29.43 in Calm   5 mph 28% 0 in WeatherCatV3.04B91 W/m2
17:44 93.4 °F 55.36 °F 29.43 in SW 1 mph 6 mph 28% 0 in WeatherCatV3.04B91 W/m2
17:49 93.2 °F 55.19 °F 29.43 in SW 3 mph 9 mph 28% 0 in WeatherCatV3.04B91 W/m2
17:54 92.9 °F 54.94 °F 29.43 in SSW 2 mph 10 mph 28% 0 in WeatherCatV3.04B91 W/m2
17:59 92.9 °F 54.94 °F 29.43 in SW 4 mph 4 mph 28% 0 in WeatherCatV3.04B91 W/m2
18:04 92.9 °F 54.94 °F 29.43 in SW 3 mph 8 mph 28% 0 in WeatherCatV3.04B91 W/m2
18:09 92.9 °F 54.94 °F 29.43 in SW 7 mph 11 mph 28% 0 in WeatherCatV3.04B91 W/m2
18:14 92.5 °F 54.6 °F 29.43 in SW 4 mph 7 mph 28% 0 in WeatherCatV3.04B91 W/m2
18:19 92.5 °F 56.5 °F 29.43 in WSW 1 mph 1 mph 30% 0 in WeatherCatV3.04B91 W/m2
18:24 92.3 °F 55.39 °F 29.43 in Calm   11 mph 29% 0 in WeatherCatV3.04B91 W/m2
18:29 92.1 °F 56.16 °F 29.43 in SW 2 mph 7 mph 30% 0 in WeatherCatV3.04B91 W/m2
18:34 91.6 °F 54.8 °F 29.43 in SW 2 mph 12 mph 29% 0 in WeatherCatV3.04B91 W/m2
18:39 91.4 °F 55.56 °F 29.43 in SSW 3 mph 4 mph 30% 0 in WeatherCatV3.04B91 W/m2
18:44 91.2 °F 55.39 °F 29.43 in SW 1 mph 5 mph 30% 0 in WeatherCatV3.04B91 W/m2
18:49 91 °F 55.21 °F 29.43 in WSW 1 mph 4 mph 30% 0 in WeatherCatV3.04B91 W/m2
18:54 90.7 °F 54.96 °F 29.43 in SW 1 mph 6 mph 30% 0 in WeatherCatV3.04B91 W/m2
18:59 90.7 °F 54.96 °F 29.43 in SSW 3 mph 9 mph 30% 0 in WeatherCatV3.04B91 W/m2
19:04 90.7 °F 54.96 °F 29.43 in WSW 4 mph 7 mph 30% 0 in WeatherCatV3.04B91 W/m2
19:09 90.7 °F 56.74 °F 29.43 in Calm   3 mph 32% 0 in WeatherCatV3.04B91 W/m2
19:14 90.5 °F 55.69 °F 29.43 in Calm   7 mph 31% 0 in WeatherCatV3.04B91 W/m2
19:19 90.1 °F 56.22 °F 29.43 in Calm   3 mph 32% 0 in WeatherCatV3.04B91 W/m2
19:24 89.7 °F 55 °F 29.43 in SW 1 mph 6 mph 31% 0 in WeatherCatV3.04B91 W/m2
19:29 89.3 °F 55.53 °F 29.42 in SW 2 mph 7 mph 32% 0 in WeatherCatV3.04B91 W/m2
19:34 89 °F 56.12 °F 29.42 in WSW 7 mph 9 mph 33% 0 in WeatherCatV3.04B91 W/m2
19:39 88.8 °F 55.94 °F 29.42 in Calm   4 mph 33% 0 in WeatherCatV3.04B91 W/m2
19:44 88.4 °F 56.42 °F 29.42 in SW 1 mph 4 mph 34% 0 in WeatherCatV3.04B91 W/m2
19:49 88.2 °F 57.83 °F 29.42 in SSW 4 mph 4 mph 36% 0 in WeatherCatV3.04B91 W/m2
19:54 87.8 °F 57.48 °F 29.42 in Calm   2 mph 36% 0 in WeatherCatV3.04B91 W/m2
19:59 87.6 °F 58.07 °F 29.43 in Calm   3 mph 37% 0 in WeatherCatV3.04B91 W/m2
20:04 87.4 °F 58.64 °F 29.43 in SW 3 mph 4 mph 38% 0 in WeatherCatV3.04B91 W/m2
20:09 87 °F 58.28 °F 29.43 in Calm   2 mph 38% 0 in WeatherCatV3.04B91 W/m2
20:14 86.7 °F 58.74 °F 29.42 in Calm   1 mph 39% 0 in WeatherCatV3.04B91 W/m2
20:19 86.3 °F 58.39 °F 29.42 in SW 1 mph 2 mph 39% 0 in WeatherCatV3.04B91 W/m2
20:24 86.1 °F 58.92 °F 29.42 in Calm   2 mph 40% 0 in WeatherCatV3.04B91 W/m2
20:29 85.7 °F 58.56 °F 29.42 in Calm   5 mph 40% 0 in WeatherCatV3.04B91 W/m2
20:34 85.5 °F 58.38 °F 29.42 in Calm   5 mph 40% 0 in WeatherCatV3.04B91 W/m2
20:39 85.5 °F 58.38 °F 29.42 in SSW 2 mph 5 mph 40% 0 in WeatherCatV3.04B91 W/m2
20:44 85.3 °F 57.5 °F 29.41 in SSW 1 mph 4 mph 39% 0 in WeatherCatV3.04B91 W/m2
20:49 85.3 °F 57.5 °F 29.41 in SSW 9 mph 9 mph 39% 0 in WeatherCatV3.04B91 W/m2
20:54 85.1 °F 57.32 °F 29.41 in SW 4 mph 5 mph 39% 0 in WeatherCatV3.04B91 W/m2
20:59 84.9 °F 57.14 °F 29.43 in SSW 2 mph 6 mph 39% 0 in WeatherCatV3.04B91 W/m2
21:04 84.7 °F 56.97 °F 29.43 in Calm   2 mph 39% 0 in WeatherCatV3.04B91 W/m2
21:09 84.5 °F 56.79 °F 29.43 in SSW 2 mph 2 mph 39% 0 in WeatherCatV3.04B91 W/m2
21:14 84.3 °F 57.31 °F 29.44 in SW 2 mph 3 mph 40% 0 in WeatherCatV3.04B91 W/m2
21:19 84.1 °F 57.14 °F 29.44 in SW 4 mph 5 mph 40% 0 in WeatherCatV3.04B91 W/m2
21:24 84 °F 57.73 °F 29.44 in SW 3 mph 6 mph 41% 0 in WeatherCatV3.04B91 W/m2
21:29 83.8 °F 57.56 °F 29.44 in SSW 3 mph 3 mph 41% 0 in WeatherCatV3.04B91 W/m2
21:34 83.8 °F 57.56 °F 29.44 in Calm   4 mph 41% 0 in WeatherCatV3.04B91 W/m2
21:39 83.6 °F 57.38 °F 29.44 in WSW 2 mph 7 mph 41% 0 in WeatherCatV3.04B91 W/m2
21:44 83.4 °F 57.87 °F 29.45 in Calm   2 mph 42% 0 in WeatherCatV3.04B91 W/m2
21:49 83.2 °F 58.35 °F 29.45 in SW 2 mph 4 mph 43% 0 in WeatherCatV3.04B91 W/m2
21:54 82.8 °F 57.99 °F 29.45 in Calm   4 mph 43% 0 in WeatherCatV3.04B91 W/m2
21:59 82.6 °F 58.45 °F 29.47 in Calm   3 mph 44% 0 in WeatherCatV3.04B91 W/m2
22:04 82.4 °F 58.89 °F 29.47 in Calm   1 mph 45% 0 in WeatherCatV3.04B91 W/m2
22:09 82.4 °F 58.27 °F 29.47 in NE 1 mph 5 mph 44% 0 in WeatherCatV3.04B91 W/m2
22:14 81.6 °F 57.55 °F 29.49 in East 4 mph 5 mph 44% 0 in WeatherCatV3.04B91 W/m2
22:19 80.9 °F 58.15 °F 29.49 in Calm   4 mph 46% 0 in WeatherCatV3.04B91 W/m2
22:24 80.5 °F 58.39 °F 29.49 in NE 2 mph 3 mph 47% 0 in WeatherCatV3.04B91 W/m2
22:29 80.3 °F 58.21 °F 29.49 in Calm   3 mph 47% 0 in WeatherCatV3.04B91 W/m2
22:34 80.3 °F 58.79 °F 29.49 in Calm     48% 0 in WeatherCatV3.04B91 W/m2
22:39 80.1 °F 59.19 °F 29.49 in Calm     49% 0 in WeatherCatV3.04B91 W/m2
22:44 79.8 °F 58.91 °F 29.49 in Calm     49% 0 in WeatherCatV3.04B91 W/m2
22:49 79.6 °F 59.3 °F 29.49 in Calm     50% 0 in WeatherCatV3.04B91 W/m2
22:54 79.2 °F 59.49 °F 29.49 in Calm   2 mph 51% 0 in WeatherCatV3.04B91 W/m2
22:59 79.2 °F 59.49 °F 29.49 in Calm     51% 0 in WeatherCatV3.04B91 W/m2
23:04 79.2 °F 59.49 °F 29.49 in SSW 1 mph 4 mph 51% 0 in WeatherCatV3.04B91 W/m2
23:09 79.6 °F 58.73 °F 29.49 in Calm   5 mph 49% 0 in WeatherCatV3.04B91 W/m2
23:14 80.1 °F 59.19 °F 29.48 in Calm   2 mph 49% 0 in WeatherCatV3.04B91 W/m2
23:19 80.3 °F 59.37 °F 29.48 in Calm     49% 0 in WeatherCatV3.04B91 W/m2
23:24 80.3 °F 59.37 °F 29.48 in Calm   1 mph 49% 0 in WeatherCatV3.04B91 W/m2
23:29 80.1 °F 59.19 °F 29.48 in Calm   2 mph 49% 0 in WeatherCatV3.04B91 W/m2
23:34 80.1 °F 59.76 °F 29.48 in Calm     50% 0 in WeatherCatV3.04B91 W/m2
23:39 79.9 °F 59.57 °F 29.48 in Calm   1 mph 50% 0 in WeatherCatV3.04B91 W/m2
23:44 79.9 °F 59.57 °F 29.48 in SSW 1 mph 1 mph 50% 0 in WeatherCatV3.04B91 W/m2
23:49 79.8 °F 59.48 °F 29.48 in Calm     50% 0 in WeatherCatV3.04B91 W/m2
23:54 79.6 °F 59.85 °F 29.48 in Calm     51% 0 in WeatherCatV3.04B91 W/m2
23:59 79.4 °F 59.67 °F 29.48 in Calm     51% 0 in WeatherCatV3.04B91 W/m2
Bellevue, Nebraska, USA
Compliments of Weather Underground - 3.25 mb